createdAt,value
2022-08-22T00:02:14.649Z,2.17
2022-08-22T00:03:01.812Z,1.40
2022-08-22T00:03:11.173Z,1.60
2022-08-22T00:04:54.386Z,2.42
2022-08-22T00:07:30.965Z,2.50
2022-08-22T00:10:05.112Z,2.58
2022-08-22T00:12:38.553Z,2.67
2022-08-22T00:15:16.393Z,2.55
2022-08-22T00:18:05.818Z,2.60
2022-08-22T00:20:41.331Z,2.60
2022-08-22T00:23:17.372Z,2.40
2022-08-22T00:25:55.432Z,2.80
2022-08-22T00:28:29.126Z,2.70
2022-08-22T00:31:03.426Z,2.83
2022-08-22T00:33:42.377Z,2.88
2022-08-22T00:36:22.843Z,2.33
2022-08-22T00:38:59.749Z,3.05
2022-08-22T00:41:46.215Z,3.03
2022-08-22T00:44:51.917Z,3.00
2022-08-22T00:47:45.576Z,2.75
2022-08-22T00:50:35.302Z,2.50
2022-08-22T00:53:32.552Z,2.42
2022-08-22T00:56:20.154Z,2.83
2022-08-22T00:59:18.205Z,3.00
2022-08-22T01:01:58.345Z,2.92
2022-08-22T01:04:41.366Z,2.90
2022-08-22T01:07:24.469Z,2.72
2022-08-22T01:10:14.634Z,3.15
2022-08-22T01:12:55.935Z,3.25
2022-08-22T01:15:26.895Z,3.17
2022-08-22T01:18:30.939Z,3.15
2022-08-22T01:21:38.001Z,2.92
2022-08-22T01:25:04.242Z,2.90
2022-08-22T01:28:11.777Z,3.20
2022-08-22T01:31:18.539Z,3.00
2022-08-22T01:34:29.460Z,3.20
2022-08-22T01:37:26.746Z,3.10
2022-08-22T01:40:29.580Z,3.00
2022-08-22T01:43:07.755Z,2.92
2022-08-22T01:45:51.195Z,3.30
2022-08-22T01:48:23.099Z,3.08
2022-08-22T01:50:55.738Z,3.65
2022-08-22T01:53:27.121Z,3.45
2022-08-22T01:56:04.819Z,3.33
2022-08-22T01:58:36.774Z,3.42
2022-08-22T02:03:53.421Z,3.30
2022-08-22T02:06:33.559Z,3.25
2022-08-22T02:09:07.288Z,3.10
2022-08-22T02:11:41.381Z,3.13
2022-08-22T02:14:23.751Z,3.28
2022-08-22T02:16:57.401Z,3.53
2022-08-22T02:19:37.821Z,3.30
2022-08-22T02:22:26.598Z,3.45
2022-08-22T02:25:04.334Z,3.40
2022-08-22T02:27:47.569Z,4.20
2022-08-22T02:30:18.073Z,3.20
2022-08-22T02:32:56.426Z,3.00
2022-08-22T02:35:31.974Z,3.40
2022-08-22T02:38:13.207Z,3.50
2022-08-22T02:40:44.669Z,3.50
2022-08-22T02:43:24.768Z,3.30
2022-08-22T02:45:57.538Z,3.38
2022-08-22T02:48:37.211Z,3.50
2022-08-22T02:51:11.511Z,3.50
2022-08-22T02:53:54.185Z,3.25
2022-08-22T02:56:31.462Z,3.20
2022-08-22T02:59:15.557Z,4.03
2022-08-22T03:01:45.524Z,3.55
2022-08-22T03:04:22.826Z,3.50
2022-08-22T03:07:12.577Z,4.18
2022-08-22T03:09:49.141Z,3.95
2022-08-22T03:12:25.965Z,3.20
2022-08-22T03:15:03.332Z,3.75
2022-08-22T03:17:35.935Z,3.35
2022-08-22T03:20:10.274Z,3.53
2022-08-22T03:22:45.667Z,4.13
2022-08-22T03:25:27.546Z,3.67
2022-08-22T03:28:01.918Z,3.90
2022-08-22T03:30:34.787Z,4.00
2022-08-22T03:33:17.235Z,4.20
2022-08-22T03:35:59.653Z,3.65
2022-08-22T03:38:38.838Z,4.25
2022-08-22T03:41:39.118Z,3.92
2022-08-22T03:44:50.519Z,3.50
2022-08-22T03:47:52.300Z,3.65
2022-08-22T03:50:40.609Z,3.60
2022-08-22T03:53:46.915Z,3.40
2022-08-22T03:56:44.890Z,3.42
2022-08-22T03:59:44.497Z,3.50
2022-08-22T04:02:43.411Z,3.53
2022-08-22T04:05:36.595Z,3.60
2022-08-22T04:08:43.871Z,3.17
2022-08-22T04:11:38.807Z,3.47
2022-08-22T04:14:51.753Z,3.72
2022-08-22T04:17:40.517Z,3.50
2022-08-22T04:20:21.737Z,4.38
2022-08-22T04:23:00.428Z,3.72
2022-08-22T04:25:36.356Z,3.85
2022-08-22T04:28:09.786Z,3.30
2022-08-22T04:30:46.177Z,3.50
2022-08-22T04:33:20.113Z,4.07
2022-08-22T04:36:00.677Z,3.72
2022-08-22T04:38:33.373Z,3.58
2022-08-22T04:41:07.200Z,3.70
2022-08-22T04:43:39.814Z,3.25
2022-08-22T04:46:14.783Z,3.60
2022-08-22T04:48:45.871Z,3.35
2022-08-22T04:51:21.933Z,3.73
2022-08-22T04:54:05.485Z,3.80
2022-08-22T04:56:43.251Z,3.60
2022-08-22T04:59:16.403Z,3.80
2022-08-22T05:01:47.759Z,4.00
2022-08-22T05:04:21.411Z,3.60
2022-08-22T05:06:53.585Z,4.05
2022-08-22T05:09:27.758Z,4.15
2022-08-22T05:12:01.222Z,3.67
2022-08-22T05:14:37.334Z,3.70
2022-08-22T05:17:09.695Z,3.80
2022-08-22T05:19:40.818Z,4.10
2022-08-22T05:22:16.349Z,4.07
2022-08-22T05:24:48.638Z,3.60
2022-08-22T05:27:20.752Z,3.95
2022-08-22T05:29:51.645Z,4.15
2022-08-22T05:32:24.455Z,4.07
2022-08-22T05:34:55.773Z,4.40
2022-08-22T05:37:29.626Z,4.25
2022-08-22T05:39:59.999Z,4.15
2022-08-22T05:42:32.651Z,3.90
2022-08-22T05:45:02.567Z,4.38
2022-08-22T05:47:37.688Z,4.70
2022-08-22T05:50:11.934Z,5.40
2022-08-22T05:52:51.873Z,6.22
2022-08-22T05:55:27.177Z,5.40
2022-08-22T05:58:13.799Z,6.00
2022-08-22T06:00:44.267Z,5.68
2022-08-22T06:03:19.089Z,5.32
2022-08-22T06:05:50.866Z,5.10
2022-08-22T06:08:23.940Z,5.25
2022-08-22T06:10:56.231Z,5.30
2022-08-22T06:13:33.014Z,5.20
2022-08-22T06:16:08.358Z,4.63
2022-08-22T06:18:41.849Z,5.65
2022-08-22T06:21:13.501Z,5.00
2022-08-22T06:23:46.894Z,5.25
2022-08-22T06:26:20.463Z,5.20
2022-08-22T06:28:55.093Z,4.80
2022-08-22T06:31:28.075Z,5.07
2022-08-22T06:34:01.148Z,5.03
2022-08-22T06:36:30.837Z,4.68
2022-08-22T06:39:17.283Z,4.47
2022-08-22T06:41:51.434Z,4.45
2022-08-22T06:44:22.957Z,4.90
2022-08-22T06:46:55.022Z,4.75
2022-08-22T06:51:59.343Z,4.80
2022-08-22T06:54:34.276Z,4.25
2022-08-22T06:57:06.238Z,3.67
2022-08-22T06:59:39.181Z,3.20
2022-08-22T07:02:17.460Z,4.07
2022-08-22T07:04:50.039Z,3.78
2022-08-22T07:07:19.778Z,3.55
2022-08-22T07:09:55.225Z,4.20
2022-08-22T07:12:29.675Z,4.22
2022-08-22T07:15:11.254Z,3.92
2022-08-22T07:17:49.599Z,3.85
2022-08-22T07:20:25.581Z,4.63
2022-08-22T07:22:55.929Z,3.67
2022-08-22T07:25:24.577Z,3.63
2022-08-22T07:28:08.518Z,2.85
2022-08-22T07:30:53.959Z,3.50
2022-08-22T07:33:35.503Z,2.60
2022-08-22T07:36:18.548Z,2.80
2022-08-22T07:38:55.862Z,2.60
2022-08-22T07:41:26.723Z,2.38
2022-08-22T07:44:01.110Z,3.70
2022-08-22T07:46:36.582Z,2.60
2022-08-22T07:49:14.540Z,2.80
2022-08-22T07:51:45.977Z,2.92
2022-08-22T07:54:16.942Z,2.25
2022-08-22T07:56:50.981Z,2.53
2022-08-22T07:59:21.327Z,2.35
2022-08-22T08:01:56.893Z,2.67
2022-08-22T08:04:28.307Z,2.60
2022-08-22T08:07:00.026Z,2.70
2022-08-22T08:09:31.472Z,2.22
2022-08-22T08:12:00.658Z,2.65
2022-08-22T08:14:29.625Z,2.38
2022-08-22T08:17:03.242Z,2.67
2022-08-22T08:19:33.944Z,2.83
2022-08-22T08:22:04.755Z,2.85
2022-08-22T08:24:40.545Z,2.70
2022-08-22T08:27:32.470Z,2.88
2022-08-22T08:30:04.144Z,2.65
2022-08-22T08:32:35.625Z,2.75
2022-08-22T08:35:07.596Z,2.60
2022-08-22T08:37:44.680Z,2.95
2022-08-22T08:40:29.959Z,2.40
2022-08-22T08:43:29.676Z,2.47
2022-08-22T08:46:18.126Z,2.60
2022-08-22T08:49:08.129Z,2.85
2022-08-22T08:51:53.528Z,2.67
2022-08-22T08:54:43.294Z,2.55
2022-08-22T08:57:20.749Z,2.60
2022-08-22T09:00:00.287Z,2.85
2022-08-22T09:02:58.691Z,2.40
2022-08-22T09:05:56.179Z,2.50
2022-08-22T09:08:55.645Z,2.50
2022-08-22T09:11:51.981Z,2.67
2022-08-22T09:14:51.871Z,2.28
2022-08-22T09:17:36.897Z,2.80
2022-08-22T09:20:26.006Z,2.28
2022-08-22T09:23:41.263Z,2.17
2022-08-22T09:26:17.576Z,2.55
2022-08-22T09:28:54.754Z,2.53
2022-08-22T09:31:47.796Z,2.10
2022-08-22T09:34:25.555Z,2.08
2022-08-22T09:37:06.422Z,1.90
2022-08-22T09:39:45.753Z,2.10
2022-08-22T09:42:24.049Z,2.15
2022-08-22T09:45:20.389Z,2.25
2022-08-22T09:48:02.146Z,2.05
2022-08-22T09:50:47.879Z,2.17
2022-08-22T09:53:43.425Z,2.00
2022-08-22T09:56:26.121Z,1.70
2022-08-22T09:59:03.482Z,2.33
2022-08-22T10:01:39.969Z,1.80
2022-08-22T10:04:42.101Z,1.75
2022-08-22T10:07:27.953Z,2.05
2022-08-22T10:10:03.759Z,2.15
2022-08-22T10:12:36.735Z,1.88
2022-08-22T10:15:17.717Z,1.88
2022-08-22T10:18:00.861Z,2.00
2022-08-22T10:20:33.119Z,2.00
2022-08-22T10:23:15.626Z,2.13
2022-08-22T10:25:48.007Z,2.13
2022-08-22T10:28:32.275Z,1.80
2022-08-22T10:31:23.513Z,2.20
2022-08-22T10:34:08.899Z,2.23
2022-08-22T10:36:46.079Z,2.38
2022-08-22T10:39:22.610Z,2.10
2022-08-22T10:42:18.569Z,2.20
2022-08-22T10:44:59.173Z,2.47
2022-08-22T10:47:34.876Z,3.15
2022-08-22T10:50:13.227Z,3.20
2022-08-22T10:52:48.615Z,2.00
2022-08-22T10:55:22.076Z,1.80
2022-08-22T10:58:04.541Z,1.85
2022-08-22T11:00:46.164Z,1.55
2022-08-22T11:03:23.185Z,1.70
2022-08-22T11:05:54.398Z,1.45
2022-08-22T11:08:51.041Z,1.63
2022-08-22T11:11:32.694Z,1.85
2022-08-22T11:14:22.346Z,1.40
2022-08-22T11:17:00.613Z,1.50
2022-08-22T11:19:59.319Z,1.80
2022-08-22T11:22:34.581Z,1.80
2022-08-22T11:25:22.909Z,2.10
2022-08-22T11:28:25.295Z,1.60
2022-08-22T11:31:07.232Z,1.70
2022-08-22T11:33:47.360Z,1.70
2022-08-22T11:36:31.198Z,1.65
2022-08-22T11:39:17.898Z,1.50
2022-08-22T11:41:52.459Z,1.50
2022-08-22T11:44:27.497Z,1.75
2022-08-22T11:46:57.172Z,1.90
2022-08-22T11:49:48.860Z,1.60
2022-08-22T11:52:26.122Z,1.63
2022-08-22T11:55:16.538Z,1.73
2022-08-22T11:57:48.895Z,1.90
2022-08-22T12:00:24.340Z,1.75
2022-08-22T12:03:16.325Z,1.80
2022-08-22T12:05:48.331Z,2.00
2022-08-22T12:08:24.856Z,1.90
2022-08-22T12:11:00.854Z,1.83
2022-08-22T12:13:42.949Z,1.88
2022-08-22T12:16:18.192Z,2.03
2022-08-22T12:18:54.757Z,2.08
2022-08-22T12:21:46.420Z,1.83
2022-08-22T12:24:44.710Z,2.17
2022-08-22T12:27:41.332Z,1.88
2022-08-22T12:30:21.673Z,1.80
2022-08-22T12:33:27.299Z,2.10
2022-08-22T12:36:24.029Z,1.90
2022-08-22T12:39:15.389Z,2.03
2022-08-22T12:42:07.224Z,1.80
2022-08-22T12:47:34.434Z,1.73
2022-08-22T12:50:17.130Z,2.10
2022-08-22T12:53:03.521Z,1.80
2022-08-22T12:55:48.690Z,2.10
2022-08-22T12:58:33.082Z,2.00
2022-08-22T13:01:08.265Z,2.10
2022-08-22T13:03:38.099Z,1.90
2022-08-22T13:06:22.307Z,2.17
2022-08-22T13:08:51.226Z,2.22
2022-08-22T13:11:23.146Z,2.22
2022-08-22T13:13:57.121Z,2.17
2022-08-22T13:16:36.903Z,2.40
2022-08-22T13:19:13.721Z,2.60
2022-08-22T13:21:46.491Z,2.40
2022-08-22T13:24:22.657Z,2.50
2022-08-22T13:27:09.972Z,2.28
2022-08-22T13:29:43.058Z,2.30
2022-08-22T13:32:23.451Z,2.60
2022-08-22T13:34:54.330Z,2.17
2022-08-22T13:37:29.903Z,2.30
2022-08-22T13:40:03.676Z,2.00
2022-08-22T13:42:34.356Z,2.33
2022-08-22T13:45:16.442Z,2.30
2022-08-22T13:47:52.892Z,2.10
2022-08-22T13:50:25.037Z,2.10
2022-08-22T13:53:02.102Z,2.35
2022-08-22T13:55:36.387Z,2.13
2022-08-22T13:58:12.002Z,2.40
2022-08-22T14:01:15.429Z,2.22
2022-08-22T14:03:50.340Z,2.80
2022-08-22T14:06:37.724Z,2.55
2022-08-22T14:09:17.300Z,2.20
2022-08-22T14:12:12.169Z,2.17
2022-08-22T14:14:43.406Z,2.20
2022-08-22T14:17:20.961Z,2.20
2022-08-22T14:19:59.722Z,2.35
2022-08-22T14:22:34.846Z,2.40
2022-08-22T14:25:07.658Z,2.30
2022-08-22T14:27:39.737Z,2.10
2022-08-22T14:30:15.492Z,2.50
2022-08-22T14:32:48.172Z,2.20
2022-08-22T14:35:31.392Z,2.28
2022-08-22T14:38:21.395Z,2.22
2022-08-22T14:40:58.711Z,2.53
2022-08-22T14:43:47.026Z,2.20
2022-08-22T14:46:23.528Z,2.20
2022-08-22T14:49:10.668Z,2.40
2022-08-22T14:51:50.877Z,2.25
2022-08-22T14:54:21.312Z,2.20
2022-08-22T14:56:52.658Z,2.23
2022-08-22T14:59:32.429Z,2.40
2022-08-22T15:02:06.840Z,2.20
2022-08-22T15:04:37.950Z,2.22
2022-08-22T15:07:08.519Z,2.45
2022-08-22T15:09:41.603Z,2.10
2022-08-22T15:12:24.555Z,2.28
2022-08-22T15:14:55.915Z,2.20
2022-08-22T15:17:50.930Z,2.25
2022-08-22T15:20:28.607Z,2.28
2022-08-22T15:23:03.244Z,2.13
2022-08-22T15:25:41.119Z,2.00
2022-08-22T15:28:20.189Z,2.30
2022-08-22T15:31:03.777Z,2.08
2022-08-22T15:33:35.256Z,2.30
2022-08-22T15:36:15.911Z,2.13
2022-08-22T15:38:48.298Z,2.40
2022-08-22T15:41:44.639Z,2.33
2022-08-22T15:44:32.608Z,2.15
2022-08-22T15:47:10.798Z,2.10
2022-08-22T15:49:55.548Z,2.40
2022-08-22T15:52:29.372Z,2.17
2022-08-22T15:55:22.814Z,2.42
2022-08-22T15:58:04.465Z,2.22
2022-08-22T16:00:43.352Z,2.30
2022-08-22T16:03:24.310Z,2.28
2022-08-22T16:05:55.801Z,2.10
2022-08-22T16:08:28.584Z,2.20
2022-08-22T16:11:32.416Z,2.22
2022-08-22T16:14:21.403Z,2.28
2022-08-22T16:17:23.900Z,2.22
2022-08-22T16:20:30.587Z,2.30
2022-08-22T16:23:08.767Z,2.30
2022-08-22T16:26:07.680Z,2.20
2022-08-22T16:29:03.842Z,2.03
2022-08-22T16:31:35.859Z,2.20
2022-08-22T16:34:22.829Z,2.22
2022-08-22T16:36:52.345Z,2.10
2022-08-22T16:39:36.612Z,2.17
2022-08-22T16:42:35.036Z,2.10
2022-08-22T16:45:31.096Z,2.38
2022-08-22T16:47:59.284Z,2.17
2022-08-22T16:50:33.081Z,2.33
2022-08-22T16:53:04.912Z,2.28
2022-08-22T16:55:56.242Z,2.28
2022-08-22T16:59:09.855Z,1.98
2022-08-22T17:02:12.153Z,2.40
2022-08-22T17:04:51.332Z,2.20
2022-08-22T17:07:33.746Z,2.33
2022-08-22T17:10:17.760Z,2.20
2022-08-22T17:12:59.139Z,2.50
2022-08-22T17:15:34.811Z,2.00
2022-08-22T17:18:20.151Z,2.15
2022-08-22T17:20:54.256Z,2.20
2022-08-22T17:23:35.667Z,1.80
2022-08-22T17:26:19.009Z,2.30
2022-08-22T17:29:02.200Z,2.10
2022-08-22T17:31:44.732Z,2.08
2022-08-22T17:34:29.995Z,2.33
2022-08-22T17:37:08.242Z,2.00
2022-08-22T17:40:03.785Z,2.03
2022-08-22T17:42:55.388Z,2.15
2022-08-22T17:45:31.428Z,2.00
2022-08-22T17:48:06.220Z,2.00
2022-08-22T17:50:41.030Z,2.13
2022-08-22T17:53:16.344Z,1.85
2022-08-22T17:55:58.841Z,1.90
2022-08-22T17:58:31.860Z,2.00
2022-08-22T18:01:14.708Z,2.10
2022-08-22T18:03:51.030Z,1.90
2022-08-22T18:06:25.134Z,1.88
2022-08-22T18:11:50.851Z,2.10
2022-08-22T18:14:30.606Z,1.90
2022-08-22T18:17:00.801Z,1.90
2022-08-22T18:19:43.143Z,2.20
2022-08-22T18:22:21.357Z,3.20
2022-08-22T18:25:00.685Z,2.20
2022-08-22T18:27:35.750Z,2.00
2022-08-22T18:30:17.533Z,2.15
2022-08-22T18:32:55.370Z,1.90
2022-08-22T18:35:29.307Z,2.13
2022-08-22T18:38:19.182Z,2.40
2022-08-22T18:40:52.602Z,2.22
2022-08-22T18:43:26.971Z,1.90
2022-08-22T18:46:03.907Z,2.25
2022-08-22T18:48:54.284Z,1.92
2022-08-22T18:51:30.719Z,1.90
2022-08-22T18:54:26.017Z,2.20
2022-08-22T18:56:59.941Z,2.05
2022-08-22T18:59:42.717Z,2.10
2022-08-22T19:02:50.659Z,2.47
2022-08-22T19:06:11.101Z,2.35
2022-08-22T19:09:11.853Z,1.90
2022-08-22T19:11:52.016Z,2.15
2022-08-22T19:14:35.162Z,1.98
2022-08-22T19:17:29.144Z,1.88
2022-08-22T19:20:31.396Z,2.03
2022-08-22T19:26:25.743Z,2.20
2022-08-22T19:28:58.980Z,1.80
2022-08-22T19:31:44.384Z,1.98
2022-08-22T19:34:21.967Z,2.00
2022-08-22T19:37:33.017Z,2.30
2022-08-22T19:40:05.269Z,2.10
2022-08-22T19:42:36.408Z,2.05
2022-08-22T19:45:22.176Z,2.17
2022-08-22T19:48:00.373Z,2.15
2022-08-22T19:50:34.433Z,2.10
2022-08-22T19:53:24.303Z,2.30
2022-08-22T19:56:06.664Z,2.13
2022-08-22T19:58:50.315Z,2.20
2022-08-22T20:01:42.025Z,2.17
2022-08-22T20:04:23.817Z,2.20
2022-08-22T20:07:01.938Z,2.38
2022-08-22T20:09:44.234Z,2.28
2022-08-22T20:12:16.085Z,2.00
2022-08-22T20:14:46.898Z,1.88
2022-08-22T20:17:35.686Z,2.10
2022-08-22T20:20:27.992Z,2.35
2022-08-22T20:23:00.219Z,2.35
2022-08-22T20:25:42.228Z,2.10
2022-08-22T20:28:36.064Z,2.38
2022-08-22T20:31:10.246Z,2.10
2022-08-22T20:33:40.698Z,2.10
2022-08-22T20:36:27.848Z,2.40
2022-08-22T20:39:01.546Z,2.15
2022-08-22T20:41:35.522Z,2.10
2022-08-22T20:44:12.285Z,2.00
2022-08-22T20:46:55.808Z,2.20
2022-08-22T20:49:29.163Z,2.30
2022-08-22T20:51:59.740Z,2.13
2022-08-22T20:54:30.056Z,2.10
2022-08-22T20:57:01.829Z,2.20
2022-08-22T20:59:35.866Z,2.30
2022-08-22T21:02:14.603Z,2.20
2022-08-22T21:04:49.563Z,2.20
2022-08-22T21:07:37.756Z,2.03
2022-08-22T21:10:27.362Z,2.20
2022-08-22T21:13:04.904Z,2.20
2022-08-22T21:15:35.356Z,2.00
2022-08-22T21:18:03.969Z,2.28
2022-08-22T21:20:34.584Z,2.00
2022-08-22T21:23:04.204Z,2.15
2022-08-22T21:25:33.079Z,2.13
2022-08-22T21:28:02.158Z,2.35
2022-08-22T21:30:31.019Z,2.35
2022-08-22T21:32:58.703Z,2.33
2022-08-22T21:35:30.367Z,2.20
2022-08-22T21:37:59.310Z,2.30
2022-08-22T21:40:33.250Z,2.20
2022-08-22T21:43:07.333Z,2.38
2022-08-22T21:45:43.272Z,2.50
2022-08-22T21:48:47.967Z,2.30
2022-08-22T21:51:39.233Z,2.45
2022-08-22T21:54:35.579Z,2.57
2022-08-22T21:57:17.722Z,2.33
2022-08-22T21:59:51.992Z,2.38
2022-08-22T22:02:31.128Z,2.13
2022-08-22T22:05:00.703Z,2.13
2022-08-22T22:07:29.794Z,1.98
2022-08-22T22:09:57.387Z,2.38
2022-08-22T22:12:25.431Z,2.40
2022-08-22T22:14:54.799Z,2.15
2022-08-22T22:17:22.447Z,2.58
2022-08-22T22:19:50.434Z,2.35
2022-08-22T22:22:18.326Z,2.22
2022-08-22T22:24:45.918Z,2.72
2022-08-22T22:27:16.963Z,2.67
2022-08-22T22:29:44.932Z,2.35
2022-08-22T22:32:14.040Z,2.30
2022-08-22T22:34:42.679Z,2.65
2022-08-22T22:37:11.798Z,2.45
2022-08-22T22:39:40.161Z,2.42
2022-08-22T22:42:09.236Z,2.42
2022-08-22T22:44:37.022Z,2.42
2022-08-22T22:47:05.315Z,2.35
2022-08-22T22:49:34.817Z,2.72
2022-08-22T22:52:02.651Z,2.35
2022-08-22T22:54:32.162Z,2.40
2022-08-22T22:57:01.958Z,2.45
2022-08-22T22:59:29.535Z,2.53
2022-08-22T23:02:03.252Z,2.38
2022-08-22T23:04:32.112Z,2.53
2022-08-22T23:07:01.748Z,2.70
2022-08-22T23:09:38.112Z,2.50
2022-08-22T23:12:07.100Z,2.95
2022-08-22T23:14:35.354Z,2.42
2022-08-22T23:17:03.566Z,2.70
2022-08-22T23:19:31.868Z,2.58
2022-08-22T23:22:02.274Z,2.35
2022-08-22T23:24:31.414Z,2.85
2022-08-22T23:26:59.663Z,2.50
2022-08-22T23:29:27.659Z,2.40
2022-08-22T23:31:57.358Z,2.53
2022-08-22T23:34:27.172Z,2.55
2022-08-22T23:36:57.854Z,2.28
2022-08-22T23:39:28.697Z,2.60
2022-08-22T23:41:57.178Z,2.65
2022-08-22T23:44:28.117Z,2.40
2022-08-22T23:46:56.203Z,2.20
2022-08-22T23:49:23.810Z,2.63
2022-08-22T23:51:52.402Z,2.42
2022-08-22T23:54:20.328Z,2.78
2022-08-22T23:56:52.699Z,2.50
2022-08-22T23:59:22.791Z,2.58
